sensor_id;sensor_type;location;lat;lon;timestamp;pressure;altitude;pressure_sealevel;temperature;humidity
21817;BME280;13247;47.504;7.382;2023-08-06T00:00:52;96707.06;;;18.36;100.00
21817;BME280;13247;47.504;7.382;2023-08-06T00:03:37;96697.28;;;18.36;100.00
21817;BME280;13247;47.504;7.382;2023-08-06T00:06:21;96694.03;;;18.33;100.00
21817;BME280;13247;47.504;7.382;2023-08-06T00:09:06;96687.63;;;18.48;100.00
21817;BME280;13247;47.504;7.382;2023-08-06T00:11:51;96682.72;;;18.42;100.00
21817;BME280;13247;47.504;7.382;2023-08-06T00:14:36;96677.97;;;18.34;100.00
21817;BME280;13247;47.504;7.382;2023-08-06T00:17:20;96677.84;;;18.36;100.00
21817;BME280;13247;47.504;7.382;2023-08-06T00:20:05;96681.97;;;18.40;100.00
21817;BME280;13247;47.504;7.382;2023-08-06T00:22:50;96686.88;;;18.46;100.00
21817;BME280;13247;47.504;7.382;2023-08-06T00:25:36;96685.72;;;18.50;100.00
21817;BME280;13247;47.504;7.382;2023-08-06T00:28:20;96684.84;;;18.49;100.00
21817;BME280;13247;47.504;7.382;2023-08-06T00:31:05;96689.66;;;18.44;100.00
21817;BME280;13247;47.504;7.382;2023-08-06T00:33:49;96685.31;;;18.31;100.00
21817;BME280;13247;47.504;7.382;2023-08-06T00:36:34;96677.03;;;18.23;100.00
21817;BME280;13247;47.504;7.382;2023-08-06T00:39:19;96678.31;;;18.30;100.00
21817;BME280;13247;47.504;7.382;2023-08-06T00:42:03;96667.28;;;18.23;100.00
21817;BME280;13247;47.504;7.382;2023-08-06T00:44:48;96682.75;;;18.29;100.00
21817;BME280;13247;47.504;7.382;2023-08-06T00:47:33;96664.75;;;18.22;100.00
21817;BME280;13247;47.504;7.382;2023-08-06T00:50:17;96659.56;;;18.20;100.00
21817;BME280;13247;47.504;7.382;2023-08-06T00:53:02;96653.69;;;18.28;100.00
21817;BME280;13247;47.504;7.382;2023-08-06T00:55:48;96653.88;;;18.25;100.00
21817;BME280;13247;47.504;7.382;2023-08-06T00:58:33;96656.84;;;18.33;100.00
21817;BME280;13247;47.504;7.382;2023-08-06T01:01:19;96654.94;;;18.35;100.00
21817;BME280;13247;47.504;7.382;2023-08-06T01:04:04;96653.50;;;18.18;100.00
21817;BME280;13247;47.504;7.382;2023-08-06T01:12:55;96645.03;;;18.13;100.00
21817;BME280;13247;47.504;7.382;2023-08-06T01:15:49;96652.00;;;18.27;100.00
21817;BME280;13247;47.504;7.382;2023-08-06T01:18:34;96649.34;;;18.27;100.00
21817;BME280;13247;47.504;7.382;2023-08-06T01:21:20;96653.72;;;18.15;100.00
21817;BME280;13247;47.504;7.382;2023-08-06T01:24:05;96650.53;;;18.10;100.00
21817;BME280;13247;47.504;7.382;2023-08-06T01:27:08;96652.56;;;18.07;100.00
21817;BME280;13247;47.504;7.382;2023-08-06T01:32:50;96650.56;;;17.97;100.00
21817;BME280;13247;47.504;7.382;2023-08-06T01:35:38;96637.72;;;18.04;100.00
21817;BME280;13247;47.504;7.382;2023-08-06T01:38:23;96634.25;;;18.03;100.00
21817;BME280;13247;47.504;7.382;2023-08-06T01:41:08;96641.13;;;17.93;100.00
21817;BME280;13247;47.504;7.382;2023-08-06T01:43:53;96644.66;;;17.94;100.00
21817;BME280;13247;47.504;7.382;2023-08-06T01:46:37;96644.03;;;17.90;100.00
21817;BME280;13247;47.504;7.382;2023-08-06T01:49:22;96644.19;;;18.00;100.00
21817;BME280;13247;47.504;7.382;2023-08-06T01:52:07;96650.66;;;18.09;100.00
21817;BME280;13247;47.504;7.382;2023-08-06T01:54:51;96658.00;;;18.05;100.00
21817;BME280;13247;47.504;7.382;2023-08-06T01:57:36;96660.97;;;18.00;100.00
21817;BME280;13247;47.504;7.382;2023-08-06T02:00:21;96665.69;;;17.84;100.00
21817;BME280;13247;47.504;7.382;2023-08-06T02:03:05;96656.16;;;17.69;100.00
21817;BME280;13247;47.504;7.382;2023-08-06T02:05:50;96652.34;;;17.61;100.00
21817;BME280;13247;47.504;7.382;2023-08-06T02:08:34;96657.63;;;17.48;100.00
21817;BME280;13247;47.504;7.382;2023-08-06T02:11:19;96663.34;;;17.42;100.00
21817;BME280;13247;47.504;7.382;2023-08-06T02:14:03;96661.56;;;17.55;100.00
21817;BME280;13247;47.504;7.382;2023-08-06T02:16:48;96660.34;;;17.47;100.00
21817;BME280;13247;47.504;7.382;2023-08-06T02:19:34;96649.13;;;17.43;100.00
21817;BME280;13247;47.504;7.382;2023-08-06T02:22:18;96645.63;;;17.43;100.00
21817;BME280;13247;47.504;7.382;2023-08-06T02:25:03;96644.25;;;17.37;100.00
21817;BME280;13247;47.504;7.382;2023-08-06T02:27:48;96658.38;;;17.38;100.00
21817;BME280;13247;47.504;7.382;2023-08-06T02:30:32;96643.50;;;17.35;100.00
21817;BME280;13247;47.504;7.382;2023-08-06T02:33:17;96649.91;;;17.58;100.00
21817;BME280;13247;47.504;7.382;2023-08-06T02:36:03;96643.41;;;17.49;100.00
21817;BME280;13247;47.504;7.382;2023-08-06T02:38:48;96648.94;;;17.59;100.00
21817;BME280;13247;47.504;7.382;2023-08-06T02:41:33;96643.72;;;17.57;100.00
21817;BME280;13247;47.504;7.382;2023-08-06T02:44:18;96643.63;;;17.46;100.00
21817;BME280;13247;47.504;7.382;2023-08-06T02:47:03;96652.75;;;17.42;100.00
21817;BME280;13247;47.504;7.382;2023-08-06T02:49:48;96669.03;;;17.36;100.00
21817;BME280;13247;47.504;7.382;2023-08-06T02:52:32;96678.34;;;16.65;100.00
21817;BME280;13247;47.504;7.382;2023-08-06T02:55:17;96696.28;;;15.78;100.00
21817;BME280;13247;47.504;7.382;2023-08-06T02:58:02;96715.97;;;14.71;100.00
21817;BME280;13247;47.504;7.382;2023-08-06T03:00:58;96736.09;;;14.42;100.00
21817;BME280;13247;47.504;7.382;2023-08-06T03:03:43;96738.38;;;14.33;100.00
21817;BME280;13247;47.504;7.382;2023-08-06T03:06:28;96746.81;;;14.39;100.00
21817;BME280;13247;47.504;7.382;2023-08-06T03:09:12;96743.97;;;14.27;100.00
21817;BME280;13247;47.504;7.382;2023-08-06T03:11:57;96746.59;;;14.27;100.00
21817;BME280;13247;47.504;7.382;2023-08-06T03:14:41;96748.31;;;14.12;100.00
21817;BME280;13247;47.504;7.382;2023-08-06T03:17:27;96747.03;;;14.19;100.00
21817;BME280;13247;47.504;7.382;2023-08-06T03:20:11;96746.94;;;14.21;100.00
21817;BME280;13247;47.504;7.382;2023-08-06T03:22:56;96736.50;;;14.35;100.00
21817;BME280;13247;47.504;7.382;2023-08-06T03:25:40;96732.75;;;14.23;100.00
21817;BME280;13247;47.504;7.382;2023-08-06T03:28:25;96737.09;;;14.55;100.00
21817;BME280;13247;47.504;7.382;2023-08-06T03:31:09;96745.09;;;14.38;100.00
21817;BME280;13247;47.504;7.382;2023-08-06T03:33:54;96745.94;;;14.39;100.00
21817;BME280;13247;47.504;7.382;2023-08-06T03:36:38;96750.63;;;14.49;100.00
21817;BME280;13247;47.504;7.382;2023-08-06T03:39:23;96760.16;;;14.36;100.00
21817;BME280;13247;47.504;7.382;2023-08-06T03:42:08;96764.94;;;14.45;100.00
21817;BME280;13247;47.504;7.382;2023-08-06T03:44:52;96752.50;;;14.47;100.00
21817;BME280;13247;47.504;7.382;2023-08-06T03:47:37;96749.28;;;14.42;100.00
21817;BME280;13247;47.504;7.382;2023-08-06T03:50:21;96752.53;;;14.32;100.00
21817;BME280;13247;47.504;7.382;2023-08-06T03:53:06;96758.06;;;14.26;100.00
21817;BME280;13247;47.504;7.382;2023-08-06T03:55:50;96761.88;;;14.37;100.00
21817;BME280;13247;47.504;7.382;2023-08-06T03:58:35;96756.00;;;14.32;100.00
21817;BME280;13247;47.504;7.382;2023-08-06T04:01:20;96750.13;;;14.43;100.00
21817;BME280;13247;47.504;7.382;2023-08-06T04:04:04;96748.00;;;14.49;100.00
21817;BME280;13247;47.504;7.382;2023-08-06T04:06:49;96750.97;;;14.43;100.00
21817;BME280;13247;47.504;7.382;2023-08-06T04:09:33;96760.50;;;14.30;100.00
21817;BME280;13247;47.504;7.382;2023-08-06T04:12:18;96749.59;;;14.36;100.00
21817;BME280;13247;47.504;7.382;2023-08-06T04:15:03;96756.47;;;14.23;100.00
21817;BME280;13247;47.504;7.382;2023-08-06T04:17:48;96771.03;;;14.30;100.00
21817;BME280;13247;47.504;7.382;2023-08-06T04:20:33;96774.09;;;14.38;100.00
21817;BME280;13247;47.504;7.382;2023-08-06T04:23:17;96774.09;;;14.23;100.00
21817;BME280;13247;47.504;7.382;2023-08-06T04:26:02;96771.34;;;14.24;100.00
21817;BME280;13247;47.504;7.382;2023-08-06T04:28:46;96779.91;;;14.45;100.00
21817;BME280;13247;47.504;7.382;2023-08-06T04:31:31;96779.84;;;14.46;100.00
21817;BME280;13247;47.504;7.382;2023-08-06T04:34:15;96784.84;;;14.35;100.00
21817;BME280;13247;47.504;7.382;2023-08-06T04:37:00;96767.56;;;14.61;100.00
21817;BME280;13247;47.504;7.382;2023-08-06T04:39:45;96757.44;;;14.53;100.00
21817;BME280;13247;47.504;7.382;2023-08-06T04:42:30;96766.19;;;14.69;100.00
21817;BME280;13247;47.504;7.382;2023-08-06T04:45:14;96774.22;;;14.52;100.00
21817;BME280;13247;47.504;7.382;2023-08-06T04:47:59;96774.72;;;14.59;100.00
21817;BME280;13247;47.504;7.382;2023-08-06T04:50:44;96775.06;;;14.53;100.00
21817;BME280;13247;47.504;7.382;2023-08-06T04:53:29;96773.78;;;14.44;100.00
21817;BME280;13247;47.504;7.382;2023-08-06T04:56:14;96777.00;;;14.49;100.00
21817;BME280;13247;47.504;7.382;2023-08-06T04:58:59;96764.06;;;14.76;100.00
21817;BME280;13247;47.504;7.382;2023-08-06T05:01:43;96777.19;;;14.77;100.00
21817;BME280;13247;47.504;7.382;2023-08-06T05:04:28;96788.00;;;14.73;100.00
21817;BME280;13247;47.504;7.382;2023-08-06T05:07:12;96785.69;;;14.82;100.00
21817;BME280;13247;47.504;7.382;2023-08-06T05:09:57;96783.22;;;14.79;100.00
21817;BME280;13247;47.504;7.382;2023-08-06T05:12:41;96778.69;;;14.81;100.00
21817;BME280;13247;47.504;7.382;2023-08-06T05:15:26;96786.22;;;14.73;100.00
21817;BME280;13247;47.504;7.382;2023-08-06T05:18:11;96781.25;;;14.83;100.00
21817;BME280;13247;47.504;7.382;2023-08-06T05:20:56;96783.97;;;14.81;100.00
21817;BME280;13247;47.504;7.382;2023-08-06T05:23:42;96789.09;;;14.84;100.00
21817;BME280;13247;47.504;7.382;2023-08-06T05:26:26;96780.16;;;14.71;100.00
21817;BME280;13247;47.504;7.382;2023-08-06T05:29:11;96787.72;;;14.77;100.00
21817;BME280;13247;47.504;7.382;2023-08-06T05:31:55;96788.09;;;14.71;100.00
21817;BME280;13247;47.504;7.382;2023-08-06T05:34:40;96795.59;;;14.63;100.00
21817;BME280;13247;47.504;7.382;2023-08-06T05:37:25;96790.69;;;14.87;100.00
21817;BME280;13247;47.504;7.382;2023-08-06T05:40:10;96804.44;;;14.78;100.00
21817;BME280;13247;47.504;7.382;2023-08-06T05:42:55;96800.50;;;14.69;100.00
21817;BME280;13247;47.504;7.382;2023-08-06T05:45:39;96808.41;;;14.85;100.00
21817;BME280;13247;47.504;7.382;2023-08-06T05:48:24;96810.97;;;14.86;100.00
21817;BME280;13247;47.504;7.382;2023-08-06T05:51:09;96822.16;;;14.76;100.00
21817;BME280;13247;47.504;7.382;2023-08-06T05:53:56;96829.53;;;14.54;100.00
21817;BME280;13247;47.504;7.382;2023-08-06T05:56:41;96834.97;;;14.66;100.00
21817;BME280;13247;47.504;7.382;2023-08-06T05:59:25;96839.22;;;14.53;100.00
21817;BME280;13247;47.504;7.382;2023-08-06T06:02:10;96838.47;;;14.51;100.00
21817;BME280;13247;47.504;7.382;2023-08-06T06:04:55;96834.38;;;14.46;100.00
21817;BME280;13247;47.504;7.382;2023-08-06T06:07:40;96833.78;;;14.56;100.00
21817;BME280;13247;47.504;7.382;2023-08-06T06:10:24;96837.78;;;14.48;100.00
21817;BME280;13247;47.504;7.382;2023-08-06T06:13:09;96850.53;;;14.55;100.00
21817;BME280;13247;47.504;7.382;2023-08-06T06:15:56;96841.72;;;14.56;100.00
21817;BME280;13247;47.504;7.382;2023-08-06T06:18:41;96861.88;;;14.57;100.00
21817;BME280;13247;47.504;7.382;2023-08-06T06:21:25;96851.78;;;14.65;100.00
21817;BME280;13247;47.504;7.382;2023-08-06T06:24:10;96857.34;;;14.59;100.00
21817;BME280;13247;47.504;7.382;2023-08-06T06:26:54;96855.75;;;14.57;100.00
21817;BME280;13247;47.504;7.382;2023-08-06T06:29:39;96862.31;;;14.65;100.00
21817;BME280;13247;47.504;7.382;2023-08-06T06:32:25;96853.81;;;14.76;100.00
21817;BME280;13247;47.504;7.382;2023-08-06T06:35:09;96859.84;;;14.78;100.00
21817;BME280;13247;47.504;7.382;2023-08-06T06:37:54;96867.50;;;14.67;100.00
21817;BME280;13247;47.504;7.382;2023-08-06T06:40:38;96867.91;;;14.59;100.00
21817;BME280;13247;47.504;7.382;2023-08-06T06:43:23;96862.31;;;14.65;100.00
21817;BME280;13247;47.504;7.382;2023-08-06T06:46:08;96858.47;;;14.71;100.00
21817;BME280;13247;47.504;7.382;2023-08-06T06:48:53;96877.88;;;14.54;100.00
21817;BME280;13247;47.504;7.382;2023-08-06T06:51:37;96877.13;;;14.68;100.00
21817;BME280;13247;47.504;7.382;2023-08-06T06:54:22;96876.75;;;14.43;100.00
21817;BME280;13247;47.504;7.382;2023-08-06T06:57:06;96879.31;;;14.60;100.00
21817;BME280;13247;47.504;7.382;2023-08-06T06:59:51;96882.03;;;14.43;100.00
21817;BME280;13247;47.504;7.382;2023-08-06T07:02:35;96872.00;;;14.49;100.00
21817;BME280;13247;47.504;7.382;2023-08-06T07:05:20;96884.25;;;14.66;100.00
21817;BME280;13247;47.504;7.382;2023-08-06T07:08:05;96882.97;;;14.57;100.00
21817;BME280;13247;47.504;7.382;2023-08-06T07:10:49;96891.84;;;14.56;100.00
21817;BME280;13247;47.504;7.382;2023-08-06T07:13:35;96884.44;;;14.63;100.00
21817;BME280;13247;47.504;7.382;2023-08-06T07:16:19;96890.41;;;14.66;100.00
21817;BME280;13247;47.504;7.382;2023-08-06T07:19:04;96898.31;;;14.66;100.00
21817;BME280;13247;47.504;7.382;2023-08-06T07:21:50;96897.41;;;14.67;100.00
21817;BME280;13247;47.504;7.382;2023-08-06T07:24:35;96901.97;;;14.64;100.00
21817;BME280;13247;47.504;7.382;2023-08-06T07:27:19;96898.94;;;14.71;100.00
21817;BME280;13247;47.504;7.382;2023-08-06T07:30:04;96900.75;;;14.86;100.00
21817;BME280;13247;47.504;7.382;2023-08-06T07:32:50;96913.56;;;15.08;100.00
21817;BME280;13247;47.504;7.382;2023-08-06T07:35:36;96913.16;;;15.00;100.00
21817;BME280;13247;47.504;7.382;2023-08-06T07:38:21;96907.72;;;15.03;100.00
21817;BME280;13247;47.504;7.382;2023-08-06T07:41:06;96913.59;;;14.92;100.00
21817;BME280;13247;47.504;7.382;2023-08-06T07:43:50;96894.59;;;15.17;100.00
21817;BME280;13247;47.504;7.382;2023-08-06T07:46:35;96891.38;;;15.42;100.00
21817;BME280;13247;47.504;7.382;2023-08-06T07:49:21;96896.00;;;15.38;100.00
21817;BME280;13247;47.504;7.382;2023-08-06T07:52:06;96913.72;;;15.36;100.00
21817;BME280;13247;47.504;7.382;2023-08-06T07:54:51;96910.94;;;15.39;100.00
21817;BME280;13247;47.504;7.382;2023-08-06T07:57:36;96927.13;;;15.18;100.00
21817;BME280;13247;47.504;7.382;2023-08-06T08:00:22;96907.78;;;15.17;100.00
21817;BME280;13247;47.504;7.382;2023-08-06T08:03:07;96902.41;;;15.50;100.00
21817;BME280;13247;47.504;7.382;2023-08-06T08:05:55;96911.38;;;15.77;100.00
21817;BME280;13247;47.504;7.382;2023-08-06T08:08:42;96917.38;;;15.95;100.00
21817;BME280;13247;47.504;7.382;2023-08-06T08:11:27;96921.63;;;15.97;100.00
21817;BME280;13247;47.504;7.382;2023-08-06T08:14:11;96923.72;;;15.92;100.00
21817;BME280;13247;47.504;7.382;2023-08-06T08:16:56;96927.13;;;15.94;100.00
21817;BME280;13247;47.504;7.382;2023-08-06T08:19:41;96929.25;;;16.17;100.00
21817;BME280;13247;47.504;7.382;2023-08-06T08:22:25;96949.28;;;15.92;100.00
21817;BME280;13247;47.504;7.382;2023-08-06T08:25:10;96936.25;;;15.89;100.00
21817;BME280;13247;47.504;7.382;2023-08-06T08:27:55;96943.00;;;15.79;100.00
21817;BME280;13247;47.504;7.382;2023-08-06T08:30:41;96944.81;;;15.78;100.00
21817;BME280;13247;47.504;7.382;2023-08-06T08:33:26;96947.09;;;15.84;100.00
21817;BME280;13247;47.504;7.382;2023-08-06T08:36:11;96954.69;;;15.45;100.00
21817;BME280;13247;47.504;7.382;2023-08-06T08:38:55;96953.28;;;15.38;100.00
21817;BME280;13247;47.504;7.382;2023-08-06T08:41:40;96957.50;;;15.87;100.00
21817;BME280;13247;47.504;7.382;2023-08-06T08:44:25;96965.44;;;15.87;100.00
21817;BME280;13247;47.504;7.382;2023-08-06T08:47:13;96973.53;;;15.84;100.00
21817;BME280;13247;47.504;7.382;2023-08-06T08:50:01;96969.97;;;15.69;100.00
21817;BME280;13247;47.504;7.382;2023-08-06T08:52:46;96980.91;;;15.79;100.00
21817;BME280;13247;47.504;7.382;2023-08-06T08:55:32;96991.47;;;15.79;100.00
21817;BME280;13247;47.504;7.382;2023-08-06T08:58:17;96987.88;;;15.80;100.00
21817;BME280;13247;47.504;7.382;2023-08-06T09:01:02;96999.34;;;15.49;100.00
21817;BME280;13247;47.504;7.382;2023-08-06T09:03:48;96987.88;;;15.80;100.00
21817;BME280;13247;47.504;7.382;2023-08-06T09:06:37;97011.75;;;15.63;100.00
21817;BME280;13247;47.504;7.382;2023-08-06T09:09:35;97004.19;;;15.73;100.00
21817;BME280;13247;47.504;7.382;2023-08-06T09:12:23;96992.00;;;15.54;100.00
21817;BME280;13247;47.504;7.382;2023-08-06T09:15:08;96997.44;;;15.67;100.00
21817;BME280;13247;47.504;7.382;2023-08-06T09:17:53;96995.41;;;16.02;100.00
21817;BME280;13247;47.504;7.382;2023-08-06T09:20:39;96984.47;;;16.08;100.00
21817;BME280;13247;47.504;7.382;2023-08-06T09:23:31;97000.53;;;15.75;100.00
21817;BME280;13247;47.504;7.382;2023-08-06T09:26:16;96992.88;;;16.00;100.00
21817;BME280;13247;47.504;7.382;2023-08-06T09:29:00;97003.53;;;15.99;100.00
21817;BME280;13247;47.504;7.382;2023-08-06T09:31:52;97022.25;;;16.25;100.00
21817;BME280;13247;47.504;7.382;2023-08-06T09:34:41;97010.06;;;16.07;100.00
21817;BME280;13247;47.504;7.382;2023-08-06T09:37:35;97022.09;;;16.13;100.00
21817;BME280;13247;47.504;7.382;2023-08-06T09:43:08;97022.72;;;16.02;100.00
21817;BME280;13247;47.504;7.382;2023-08-06T09:45:53;97026.91;;;16.06;100.00
21817;BME280;13247;47.504;7.382;2023-08-06T09:48:40;97023.16;;;16.24;100.00
21817;BME280;13247;47.504;7.382;2023-08-06T09:51:26;97016.91;;;16.11;100.00
21817;BME280;13247;47.504;7.382;2023-08-06T09:54:13;97022.91;;;16.29;100.00
21817;BME280;13247;47.504;7.382;2023-08-06T09:56:58;97029.97;;;16.28;100.00
21817;BME280;13247;47.504;7.382;2023-08-06T09:59:43;97045.69;;;15.86;100.00
21817;BME280;13247;47.504;7.382;2023-08-06T10:02:30;97032.91;;;15.94;100.00
21817;BME280;13247;47.504;7.382;2023-08-06T10:05:16;97042.78;;;16.06;100.00
21817;BME280;13247;47.504;7.382;2023-08-06T10:08:02;97027.03;;;16.19;100.00
21817;BME280;13247;47.504;7.382;2023-08-06T10:10:48;97041.25;;;16.32;100.00
21817;BME280;13247;47.504;7.382;2023-08-06T10:13:33;97040.94;;;16.52;100.00
21817;BME280;13247;47.504;7.382;2023-08-06T10:16:20;97047.88;;;16.55;100.00
21817;BME280;13247;47.504;7.382;2023-08-06T10:19:06;97050.78;;;16.50;100.00
21817;BME280;13247;47.504;7.382;2023-08-06T10:22:18;97050.50;;;16.09;100.00
21817;BME280;13247;47.504;7.382;2023-08-06T10:25:03;97050.88;;;16.33;100.00
21817;BME280;13247;47.504;7.382;2023-08-06T10:27:55;97056.19;;;16.63;100.00
21817;BME280;13247;47.504;7.382;2023-08-06T10:30:45;97055.56;;;16.73;100.00
21817;BME280;13247;47.504;7.382;2023-08-06T10:33:44;97064.13;;;16.63;100.00
21817;BME280;13247;47.504;7.382;2023-08-06T10:36:29;97057.31;;;16.29;100.00
21817;BME280;13247;47.504;7.382;2023-08-06T10:39:15;97066.34;;;15.95;100.00
21817;BME280;13247;47.504;7.382;2023-08-06T10:42:01;97067.19;;;16.11;100.00
21817;BME280;13247;47.504;7.382;2023-08-06T10:45:18;97066.34;;;16.40;100.00
21817;BME280;13247;47.504;7.382;2023-08-06T10:48:04;97071.78;;;16.37;100.00
21817;BME280;13247;47.504;7.382;2023-08-06T10:50:49;97088.00;;;16.17;100.00
21817;BME280;13247;47.504;7.382;2023-08-06T10:53:33;97072.81;;;16.51;100.00
21817;BME280;13247;47.504;7.382;2023-08-06T10:59:03;97078.53;;;16.43;100.00
21817;BME280;13247;47.504;7.382;2023-08-06T11:01:48;97082.91;;;16.74;100.00
21817;BME280;13247;47.504;7.382;2023-08-06T11:04:34;97099.78;;;16.41;100.00
21817;BME280;13247;47.504;7.382;2023-08-06T11:07:18;97097.03;;;16.59;100.00
21817;BME280;13247;47.504;7.382;2023-08-06T11:10:08;97087.66;;;17.11;100.00
21817;BME280;13247;47.504;7.382;2023-08-06T11:12:53;97101.06;;;16.94;100.00
21817;BME280;13247;47.504;7.382;2023-08-06T11:15:38;97090.13;;;17.14;100.00
21817;BME280;13247;47.504;7.382;2023-08-06T11:18:23;97100.09;;;17.24;100.00
21817;BME280;13247;47.504;7.382;2023-08-06T11:21:07;97103.75;;;17.22;100.00
21817;BME280;13247;47.504;7.382;2023-08-06T11:23:52;97085.59;;;17.16;100.00
21817;BME280;13247;47.504;7.382;2023-08-06T11:26:37;97095.25;;;17.31;100.00
21817;BME280;13247;47.504;7.382;2023-08-06T11:29:24;97100.81;;;17.83;100.00
21817;BME280;13247;47.504;7.382;2023-08-06T11:32:11;97117.41;;;17.30;100.00
21817;BME280;13247;47.504;7.382;2023-08-06T11:34:56;97103.41;;;17.70;100.00
21817;BME280;13247;47.504;7.382;2023-08-06T11:37:46;97113.44;;;17.51;100.00
21817;BME280;13247;47.504;7.382;2023-08-06T11:40:32;97106.81;;;17.44;100.00
21817;BME280;13247;47.504;7.382;2023-08-06T11:43:19;97122.91;;;16.83;100.00
21817;BME280;13247;47.504;7.382;2023-08-06T11:46:06;97118.63;;;16.67;100.00
21817;BME280;13247;47.504;7.382;2023-08-06T11:49:00;97125.66;;;16.52;100.00
21817;BME280;13247;47.504;7.382;2023-08-06T11:51:45;97123.50;;;16.59;100.00
21817;BME280;13247;47.504;7.382;2023-08-06T11:54:33;97135.22;;;16.55;100.00
21817;BME280;13247;47.504;7.382;2023-08-06T11:57:18;97142.94;;;16.12;100.00
21817;BME280;13247;47.504;7.382;2023-08-06T12:00:10;97152.25;;;16.04;100.00
21817;BME280;13247;47.504;7.382;2023-08-06T12:02:55;97173.69;;;15.34;100.00
21817;BME280;13247;47.504;7.382;2023-08-06T12:05:40;97142.16;;;15.48;100.00
21817;BME280;13247;47.504;7.382;2023-08-06T12:08:28;97164.22;;;15.30;100.00
21817;BME280;13247;47.504;7.382;2023-08-06T12:11:13;97152.25;;;15.23;100.00
21817;BME280;13247;47.504;7.382;2023-08-06T12:13:58;97167.19;;;14.55;100.00
21817;BME280;13247;47.504;7.382;2023-08-06T12:16:44;97158.38;;;14.73;100.00
21817;BME280;13247;47.504;7.382;2023-08-06T12:19:28;97160.94;;;14.92;100.00
21817;BME280;13247;47.504;7.382;2023-08-06T12:22:15;97144.38;;;15.38;100.00
21817;BME280;13247;47.504;7.382;2023-08-06T12:25:00;97144.22;;;15.41;100.00
21817;BME280;13247;47.504;7.382;2023-08-06T12:27:46;97150.09;;;15.31;100.00
21817;BME280;13247;47.504;7.382;2023-08-06T12:30:31;97149.16;;;15.80;100.00
21817;BME280;13247;47.504;7.382;2023-08-06T12:33:15;97148.81;;;15.86;100.00
21817;BME280;13247;47.504;7.382;2023-08-06T12:36:00;97148.66;;;16.20;100.00
21817;BME280;13247;47.504;7.382;2023-08-06T12:38:44;97139.03;;;16.19;100.00
21817;BME280;13247;47.504;7.382;2023-08-06T12:41:29;97132.06;;;16.64;100.00
21817;BME280;13247;47.504;7.382;2023-08-06T12:44:13;97142.53;;;16.65;100.00
21817;BME280;13247;47.504;7.382;2023-08-06T12:46:58;97145.53;;;16.75;100.00
21817;BME280;13247;47.504;7.382;2023-08-06T12:49:43;97151.28;;;16.81;100.00
21817;BME280;13247;47.504;7.382;2023-08-06T12:52:28;97157.59;;;16.33;100.00
21817;BME280;13247;47.504;7.382;2023-08-06T12:55:12;97158.47;;;16.34;100.00
21817;BME280;13247;47.504;7.382;2023-08-06T12:57:57;97170.84;;;16.18;100.00
21817;BME280;13247;47.504;7.382;2023-08-06T13:00:41;97169.75;;;16.06;100.00
21817;BME280;13247;47.504;7.382;2023-08-06T13:03:26;97170.94;;;16.01;100.00
21817;BME280;13247;47.504;7.382;2023-08-06T13:06:11;97171.28;;;16.10;100.00
21817;BME280;13247;47.504;7.382;2023-08-06T13:08:57;97175.63;;;16.27;100.00
21817;BME280;13247;47.504;7.382;2023-08-06T13:11:42;97174.66;;;16.43;100.00
21817;BME280;13247;47.504;7.382;2023-08-06T13:14:30;97178.34;;;16.57;100.00
21817;BME280;13247;47.504;7.382;2023-08-06T13:17:15;97174.31;;;16.65;100.00
21817;BME280;13247;47.504;7.382;2023-08-06T13:19:59;97169.25;;;16.76;100.00
21817;BME280;13247;47.504;7.382;2023-08-06T13:22:44;97171.41;;;16.70;100.00
21817;BME280;13247;47.504;7.382;2023-08-06T13:25:30;97173.47;;;16.65;100.00
21817;BME280;13247;47.504;7.382;2023-08-06T13:28:21;97174.97;;;16.69;100.00
21817;BME280;13247;47.504;7.382;2023-08-06T13:31:06;97182.63;;;16.89;100.00
21817;BME280;13247;47.504;7.382;2023-08-06T13:33:50;97180.53;;;16.94;100.00
21817;BME280;13247;47.504;7.382;2023-08-06T13:36:35;97164.34;;;17.14;100.00
21817;BME280;13247;47.504;7.382;2023-08-06T13:39:19;97159.78;;;17.74;100.00
21817;BME280;13247;47.504;7.382;2023-08-06T13:42:04;97167.75;;;18.15;100.00
21817;BME280;13247;47.504;7.382;2023-08-06T13:44:49;97171.56;;;18.11;100.00
21817;BME280;13247;47.504;7.382;2023-08-06T13:47:34;97177.22;;;18.19;100.00
21817;BME280;13247;47.504;7.382;2023-08-06T13:50:18;97179.28;;;18.68;100.00
21817;BME280;13247;47.504;7.382;2023-08-06T13:53:04;97176.69;;;18.14;100.00
21817;BME280;13247;47.504;7.382;2023-08-06T13:55:49;97190.81;;;18.41;100.00
21817;BME280;13247;47.504;7.382;2023-08-06T13:58:34;97188.28;;;17.84;100.00
21817;BME280;13247;47.504;7.382;2023-08-06T14:01:18;97214.72;;;17.28;100.00
21817;BME280;13247;47.504;7.382;2023-08-06T14:04:04;97206.44;;;16.75;100.00
21817;BME280;13247;47.504;7.382;2023-08-06T14:06:48;97213.59;;;16.73;100.00
21817;BME280;13247;47.504;7.382;2023-08-06T14:09:33;97226.41;;;16.49;100.00
21817;BME280;13247;47.504;7.382;2023-08-06T14:12:18;97220.59;;;16.89;100.00
21817;BME280;13247;47.504;7.382;2023-08-06T14:15:03;97214.81;;;17.26;100.00
21817;BME280;13247;47.504;7.382;2023-08-06T14:17:48;97225.94;;;17.17;100.00
21817;BME280;13247;47.504;7.382;2023-08-06T14:20:34;97220.34;;;16.78;100.00
21817;BME280;13247;47.504;7.382;2023-08-06T14:23:19;97231.19;;;16.58;100.00
21817;BME280;13247;47.504;7.382;2023-08-06T14:26:03;97220.25;;;16.80;100.00
21817;BME280;13247;47.504;7.382;2023-08-06T14:28:48;97223.97;;;16.62;100.00
21817;BME280;13247;47.504;7.382;2023-08-06T14:31:33;97228.22;;;16.48;100.00
21817;BME280;13247;47.504;7.382;2023-08-06T14:34:17;97230.06;;;16.78;100.00
21817;BME280;13247;47.504;7.382;2023-08-06T14:37:02;97232.75;;;17.07;100.00
21817;BME280;13247;47.504;7.382;2023-08-06T14:39:46;97239.56;;;17.11;100.00